Time,TemperatureF,DewpointF,PressureIn,WindDirection,WindDirectionDegrees,WindSpeedMPH,WindSpeedGustMPH,Humidity,HourlyPrecipIn,Conditions,Clouds,dailyrainin,SolarRadiationWatts/m^2,SoftwareType,DateUTC
2013-05-11 00:02:00,54.0,34.0,-100.00,SSW,212,3.0,6.0,47,0.00,,,0.00,0.000000,,2013-05-11 06:02:00,
2013-05-11 00:12:00,54.0,34.0,-100.00,SSW,212,3.0,6.0,47,0.00,,,0.00,0.000000,,2013-05-11 06:12:00,
2013-05-11 00:21:00,54.0,34.0,-100.00,SSW,212,3.0,6.0,47,0.00,,,0.00,0.000000,,2013-05-11 06:21:00,
2013-05-11 00:52:00,52.0,33.0,-100.00,West,281,0.0,7.0,49,0.00,,,0.00,0.000000,,2013-05-11 06:52:00,
2013-05-11 01:01:00,52.0,33.0,-100.00,West,281,0.0,7.0,49,0.00,,,0.00,0.000000,,2013-05-11 07:01:00,
2013-05-11 01:11:00,52.0,33.0,-100.00,West,281,0.0,7.0,49,0.00,,,0.00,0.000000,,2013-05-11 07:11:00,
2013-05-11 01:21:00,52.0,33.0,-100.00,West,281,0.0,7.0,49,0.00,,,0.00,0.000000,,2013-05-11 07:21:00,
2013-05-11 01:52:00,50.0,34.0,-100.00,SW,227,0.0,5.0,55,0.00,,,0.00,0.000000,,2013-05-11 07:52:00,
2013-05-11 02:01:00,50.0,34.0,-100.00,SW,227,0.0,5.0,55,0.00,,,0.00,0.000000,,2013-05-11 08:01:00,
2013-05-11 02:12:00,50.0,34.0,-100.00,SW,227,0.0,5.0,55,0.00,,,0.00,0.000000,,2013-05-11 08:12:00,
2013-05-11 02:21:00,50.0,34.0,-100.00,SW,227,0.0,5.0,55,0.00,,,0.00,0.000000,,2013-05-11 08:21:00,
2013-05-11 02:52:00,48.0,35.0,-100.00,South,177,0.0,0.0,61,0.00,,,0.00,0.000000,,2013-05-11 08:52:00,
2013-05-11 03:01:00,48.0,35.0,-100.00,South,177,0.0,0.0,61,0.00,,,0.00,0.000000,,2013-05-11 09:01:00,
2013-05-11 03:11:00,48.0,35.0,-100.00,South,177,0.0,0.0,61,0.00,,,0.00,0.000000,,2013-05-11 09:11:00,
2013-05-11 03:21:00,48.0,35.0,-100.00,South,177,0.0,0.0,61,0.00,,,0.00,0.000000,,2013-05-11 09:21:00,
2013-05-11 03:52:00,45.0,35.0,-100.00,South,182,0.0,3.0,67,0.00,,,0.00,0.000000,,2013-05-11 09:52:00,
2013-05-11 04:03:00,45.0,35.0,-100.00,South,182,0.0,3.0,67,0.00,,,0.00,0.000000,,2013-05-11 10:03:00,
2013-05-11 04:12:00,45.0,35.0,-100.00,South,182,0.0,3.0,67,0.00,,,0.00,0.000000,,2013-05-11 10:12:00,
2013-05-11 04:22:00,45.0,35.0,-100.00,South,182,0.0,3.0,67,0.00,,,0.00,0.000000,,2013-05-11 10:22:00,
2013-05-11 04:52:00,43.0,35.0,-100.00,South,180,0.0,0.0,72,0.00,,,0.00,0.000000,,2013-05-11 10:52:00,
2013-05-11 05:02:00,43.0,35.0,-100.00,South,180,0.0,0.0,72,0.00,,,0.00,0.000000,,2013-05-11 11:02:00,
2013-05-11 05:11:00,43.0,35.0,-100.00,South,180,0.0,0.0,72,0.00,,,0.00,0.000000,,2013-05-11 11:11:00,
2013-05-11 05:21:00,43.0,35.0,-100.00,South,180,0.0,0.0,72,0.00,,,0.00,0.000000,,2013-05-11 11:21:00,
2013-05-11 05:52:00,41.0,34.0,-100.00,NNE,28,0.0,0.0,75,0.00,,,-99.99,0.000000,,2013-05-11 11:52:00,
2013-05-11 06:01:00,41.0,34.0,-100.00,NNE,28,0.0,0.0,75,0.00,,,-99.99,0.000000,,2013-05-11 12:01:00,
2013-05-11 06:11:00,41.0,34.0,-100.00,NNE,28,0.0,0.0,75,0.00,,,-99.99,0.000000,,2013-05-11 12:11:00,
2013-05-11 06:21:00,41.0,34.0,-100.00,NNE,28,0.0,0.0,75,0.00,,,-99.99,0.000000,,2013-05-11 12:21:00,
2013-05-11 06:52:00,38.0,32.0,-100.00,SSW,212,0.0,0.0,80,0.00,,,-99.99,0.000000,,2013-05-11 12:52:00,
2013-05-11 07:01:00,38.0,32.0,-100.00,SSW,212,0.0,0.0,80,0.00,,,-99.99,0.000000,,2013-05-11 13:01:00,
2013-05-11 07:11:00,38.0,32.0,-100.00,SSW,212,0.0,0.0,80,0.00,,,-99.99,0.000000,,2013-05-11 13:11:00,
2013-05-11 07:21:00,38.0,32.0,-100.00,SSW,212,0.0,0.0,80,0.00,,,-99.99,0.000000,,2013-05-11 13:21:00,
2013-05-11 07:52:00,38.0,33.0,-100.00,South,180,0.0,0.0,82,0.00,,,0.00,14.000000,,2013-05-11 13:52:00,
2013-05-11 08:02:00,38.0,33.0,-100.00,South,180,0.0,0.0,82,0.00,,,0.00,14.000000,,2013-05-11 14:02:00,
2013-05-11 08:11:00,38.0,33.0,-100.00,South,180,0.0,0.0,82,0.00,,,0.00,14.000000,,2013-05-11 14:11:00,
2013-05-11 08:21:00,38.0,33.0,-100.00,South,180,0.0,0.0,82,0.00,,,0.00,14.000000,,2013-05-11 14:21:00,
2013-05-11 08:52:00,41.0,33.0,-100.00,NNE,27,0.0,0.0,74,0.00,,,0.00,47.000000,,2013-05-11 14:52:00,
2013-05-11 09:01:00,41.0,33.0,-100.00,NNE,27,0.0,0.0,74,0.00,,,0.00,47.000000,,2013-05-11 15:01:00,
2013-05-11 09:11:00,41.0,33.0,-100.00,NNE,27,0.0,0.0,74,0.00,,,0.00,47.000000,,2013-05-11 15:11:00,
2013-05-11 09:21:00,41.0,33.0,-100.00,NNE,27,0.0,0.0,74,0.00,,,0.00,47.000000,,2013-05-11 15:21:00,
2013-05-11 09:53:00,52.0,36.0,-100.00,North,11,0.0,0.0,55,0.00,,,0.00,322.000000,,2013-05-11 15:53:00,
2013-05-11 10:02:00,52.0,36.0,-100.00,North,11,0.0,0.0,55,0.00,,,0.00,322.000000,,2013-05-11 16:02:00,
2013-05-11 10:12:00,52.0,36.0,-100.00,North,11,0.0,0.0,55,0.00,,,0.00,322.000000,,2013-05-11 16:12:00,
2013-05-11 10:22:00,52.0,36.0,-100.00,North,11,0.0,0.0,55,0.00,,,0.00,322.000000,,2013-05-11 16:22:00,
2013-05-11 10:53:00,57.0,40.0,-100.00,North,10,4.0,4.0,52,0.00,,,0.00,517.000000,,2013-05-11 16:53:00,
2013-05-11 11:02:00,57.0,40.0,-100.00,North,10,4.0,4.0,52,0.00,,,0.00,517.000000,,2013-05-11 17:02:00,
2013-05-11 11:12:00,57.0,40.0,-100.00,North,10,4.0,4.0,52,0.00,,,0.00,517.000000,,2013-05-11 17:12:00,
2013-05-11 11:22:00,57.0,40.0,-100.00,North,10,4.0,4.0,52,0.00,,,0.00,517.000000,,2013-05-11 17:22:00,
2013-05-11 11:52:00,68.0,38.0,-100.00,North,5,3.0,6.0,33,0.00,,,0.00,565.000000,,2013-05-11 17:52:00,
2013-05-11 12:01:00,68.0,38.0,-100.00,North,5,3.0,6.0,33,0.00,,,0.00,565.000000,,2013-05-11 18:01:00,
2013-05-11 12:11:00,68.0,38.0,-100.00,North,5,3.0,6.0,33,0.00,,,0.00,565.000000,,2013-05-11 18:11:00,
2013-05-11 12:21:00,68.0,38.0,-100.00,North,5,3.0,6.0,33,0.00,,,0.00,565.000000,,2013-05-11 18:21:00,
2013-05-11 12:52:00,75.0,32.0,-100.00,North,354,4.0,7.0,21,0.00,,,0.00,768.000000,,2013-05-11 18:52:00,
2013-05-11 13:02:00,75.0,32.0,-100.00,North,354,4.0,7.0,21,0.00,,,0.00,768.000000,,2013-05-11 19:02:00,
2013-05-11 13:11:00,75.0,32.0,-100.00,North,354,4.0,7.0,21,0.00,,,0.00,768.000000,,2013-05-11 19:11:00,
2013-05-11 13:21:00,75.0,32.0,-100.00,North,354,4.0,7.0,21,0.00,,,0.00,768.000000,,2013-05-11 19:21:00,
2013-05-11 13:52:00,74.0,29.0,-100.00,NNW,333,1.0,9.0,19,0.00,,,0.00,539.000000,,2013-05-11 19:52:00,
2013-05-11 14:01:00,74.0,29.0,-100.00,NNW,333,1.0,9.0,19,0.00,,,0.00,539.000000,,2013-05-11 20:01:00,
2013-05-11 14:12:00,74.0,29.0,-100.00,NNW,333,1.0,9.0,19,0.00,,,0.00,539.000000,,2013-05-11 20:12:00,
2013-05-11 14:22:00,74.0,29.0,-100.00,NNW,333,1.0,9.0,19,0.00,,,0.00,539.000000,,2013-05-11 20:22:00,
2013-05-11 14:52:00,74.0,32.0,-100.00,North,6,14.0,14.0,21,0.00,,,0.00,459.000000,,2013-05-11 20:52:00,
2013-05-11 15:02:00,74.0,32.0,-100.00,North,6,14.0,14.0,21,0.00,,,0.00,459.000000,,2013-05-11 21:02:00,
2013-05-11 15:11:00,74.0,32.0,-100.00,North,6,14.0,14.0,21,0.00,,,0.00,459.000000,,2013-05-11 21:11:00,
2013-05-11 15:21:00,74.0,32.0,-100.00,North,6,14.0,14.0,21,0.00,,,0.00,459.000000,,2013-05-11 21:21:00,
2013-05-11 15:52:00,77.0,30.0,-100.00,NNE,23,3.0,23.0,18,0.00,,,0.00,505.000000,,2013-05-11 21:52:00,
2013-05-11 16:02:00,77.0,30.0,-100.00,NNE,23,3.0,23.0,18,0.00,,,0.00,505.000000,,2013-05-11 22:02:00,
2013-05-11 16:12:00,77.0,30.0,-100.00,NNE,23,3.0,23.0,18,0.00,,,0.00,505.000000,,2013-05-11 22:12:00,
2013-05-11 16:22:00,77.0,30.0,-100.00,NNE,23,3.0,23.0,18,0.00,,,0.00,505.000000,,2013-05-11 22:22:00,
2013-05-11 16:52:00,77.0,32.0,-100.00,NNE,13,4.0,16.0,19,0.00,,,0.00,637.000000,,2013-05-11 22:52:00,
2013-05-11 17:02:00,77.0,32.0,-100.00,NNE,13,4.0,16.0,19,0.00,,,0.00,637.000000,,2013-05-11 23:02:00,
2013-05-11 17:11:00,77.0,32.0,-100.00,NNE,13,4.0,16.0,19,0.00,,,0.00,637.000000,,2013-05-11 23:11:00,
2013-05-11 17:21:00,77.0,32.0,-100.00,NNE,13,4.0,16.0,19,0.00,,,0.00,637.000000,,2013-05-11 23:21:00,
2013-05-11 17:52:00,80.0,33.0,-100.00,NNW,335,8.0,10.0,18,0.00,,,0.00,519.000000,,2013-05-11 23:52:00,
2013-05-11 18:01:00,80.0,33.0,-100.00,NNW,335,8.0,10.0,18,0.00,,,0.00,519.000000,,2013-05-12 00:01:00,
2013-05-11 18:11:00,80.0,33.0,-100.00,NNW,335,8.0,10.0,18,0.00,,,0.00,519.000000,,2013-05-12 00:11:00,
2013-05-11 18:21:00,80.0,33.0,-100.00,NNW,335,8.0,10.0,18,0.00,,,0.00,519.000000,,2013-05-12 00:21:00,
2013-05-11 18:52:00,78.0,32.0,-100.00,North,2,9.0,13.0,19,0.00,,,0.00,437.000000,,2013-05-12 00:52:00,
2013-05-11 19:01:00,78.0,32.0,-100.00,North,2,9.0,13.0,19,0.00,,,0.00,437.000000,,2013-05-12 01:01:00,
2013-05-11 19:11:00,78.0,32.0,-100.00,North,2,9.0,13.0,19,0.00,,,0.00,437.000000,,2013-05-12 01:11:00,
2013-05-11 19:21:00,78.0,32.0,-100.00,North,2,9.0,13.0,19,0.00,,,0.00,437.000000,,2013-05-12 01:21:00,
2013-05-11 19:52:00,77.0,33.0,-100.00,NNE,17,4.0,17.0,20,0.00,,,0.00,386.000000,,2013-05-12 01:52:00,
2013-05-11 20:01:00,77.0,33.0,-100.00,NNE,17,4.0,17.0,20,0.00,,,0.00,386.000000,,2013-05-12 02:01:00,
2013-05-11 20:11:00,77.0,33.0,-100.00,NNE,17,4.0,17.0,20,0.00,,,0.00,386.000000,,2013-05-12 02:11:00,
2013-05-11 20:22:00,77.0,33.0,-100.00,NNE,17,4.0,17.0,20,0.00,,,0.00,386.000000,,2013-05-12 02:22:00,
2013-05-11 20:52:00,73.0,35.0,-100.00,East,92,0.0,14.0,25,0.00,,,0.00,144.000000,,2013-05-12 02:52:00,
2013-05-11 21:01:00,73.0,35.0,-100.00,East,92,0.0,14.0,25,0.00,,,0.00,144.000000,,2013-05-12 03:01:00,
2013-05-11 21:11:00,73.0,35.0,-100.00,East,92,0.0,14.0,25,0.00,,,0.00,144.000000,,2013-05-12 03:11:00,
2013-05-11 21:21:00,73.0,35.0,-100.00,East,92,0.0,14.0,25,0.00,,,0.00,144.000000,,2013-05-12 03:21:00,
2013-05-11 21:53:00,64.0,36.0,-100.00,SSW,194,2.0,5.0,35,0.00,,,0.00,30.000000,,2013-05-12 03:53:00,
2013-05-11 22:02:00,-999.0,-99.9,-100.00,SSW,194,2.0,5.0,35,0.00,,,0.00,30.000000,,2013-05-12 04:02:00,
2013-05-11 22:12:00,64.0,36.0,-100.00,SSW,194,2.0,5.0,35,0.00,,,0.00,30.000000,,2013-05-12 04:12:00,
2013-05-11 22:22:00,64.0,36.0,-100.00,SSW,194,2.0,5.0,35,0.00,,,0.00,30.000000,,2013-05-12 04:22:00,
2013-05-11 22:52:00,60.0,37.0,-100.00,SSW,209,1.0,8.0,42,0.00,,,0.00,0.000000,,2013-05-12 04:52:00,
2013-05-11 23:02:00,60.0,37.0,-100.00,SSW,209,1.0,8.0,42,0.00,,,0.00,0.000000,,2013-05-12 05:02:00,
2013-05-11 23:11:00,60.0,37.0,-100.00,SSW,209,1.0,8.0,42,0.00,,,0.00,0.000000,,2013-05-12 05:11:00,
2013-05-11 23:21:00,60.0,37.0,-100.00,SSW,209,1.0,8.0,42,0.00,,,0.00,0.000000,,2013-05-12 05:21:00,
2013-05-11 23:52:00,57.0,36.0,-100.00,SSW,202,3.0,8.0,46,0.00,,,0.00,0.000000,,2013-05-12 05:52:00,